createdAt,value
2023-02-11T00:02:01.621Z,97172.25
2023-02-11T00:04:30.021Z,97178.47
2023-02-11T00:06:58.533Z,97023.38
2023-02-11T00:09:27.036Z,97174.22
2023-02-11T00:11:55.356Z,97142.13
2023-02-11T00:14:23.774Z,97152.88
2023-02-11T00:16:53.623Z,97190.19
2023-02-11T00:19:22.051Z,97189.91
2023-02-11T00:21:50.412Z,97146.97
2023-02-11T00:24:18.745Z,97170.09
2023-02-11T00:26:47.106Z,97163.66
2023-02-11T00:29:15.438Z,97166.91
2023-02-11T00:31:43.847Z,97138.72
2023-02-11T00:34:13.803Z,97144.03
2023-02-11T00:36:42.623Z,97078.56
2023-02-11T00:39:11.094Z,97128.34
2023-02-11T00:41:39.458Z,97127.22
2023-02-11T00:44:08.446Z,97107.41
2023-02-11T00:46:36.919Z,97079.81
2023-02-11T00:49:05.570Z,97077.63
2023-02-11T00:51:35.598Z,97076.06
2023-02-11T00:54:03.992Z,97050.06
2023-02-11T00:56:32.812Z,97077.75
2023-02-11T00:59:01.236Z,97055.66
2023-02-11T01:01:29.668Z,97074.63
2023-02-11T01:03:58.090Z,97057.31
2023-02-11T01:06:26.605Z,97041.91
2023-02-11T01:08:56.384Z,96997.88
2023-02-11T01:11:24.978Z,97043.94
2023-02-11T01:13:53.497Z,97055.19
2023-02-11T01:16:23.334Z,97048.16
2023-02-11T01:18:51.743Z,97042.13
2023-02-11T01:21:20.298Z,97045.50
2023-02-11T01:23:48.701Z,97040.03
2023-02-11T01:26:18.613Z,97037.25
2023-02-11T01:28:47.163Z,97054.41
2023-02-11T01:31:16.157Z,97015.81
2023-02-11T01:33:44.827Z,97043.94
2023-02-11T01:36:13.851Z,97048.00
2023-02-11T01:38:43.827Z,97054.47
2023-02-11T01:41:15.221Z,97031.84
2023-02-11T01:43:47.338Z,97049.16
2023-02-11T01:46:33.800Z,97041.38
2023-02-11T01:49:07.402Z,97045.88
2023-02-11T01:51:40.666Z,97026.19
2023-02-11T01:54:29.752Z,97048.63
2023-02-11T01:57:18.311Z,96985.69
2023-02-11T01:59:55.342Z,97047.88
2023-02-11T02:02:28.590Z,97033.88
2023-02-11T02:05:02.225Z,97029.09
2023-02-11T02:07:34.734Z,97015.81
2023-02-11T02:10:08.278Z,97021.13
2023-02-11T02:12:36.684Z,97019.88
2023-02-11T02:15:27.803Z,97036.53
2023-02-11T02:18:01.927Z,97039.34
2023-02-11T02:21:04.216Z,97042.13
2023-02-11T02:23:59.232Z,97080.59
2023-02-11T02:26:55.687Z,97082.69
2023-02-11T02:29:57.893Z,97059.97
2023-02-11T02:32:48.674Z,97036.53
2023-02-11T02:35:28.120Z,97029.47
2023-02-11T02:38:03.296Z,97003.34
2023-02-11T02:40:36.949Z,96983.66
2023-02-11T02:43:06.137Z,96991.56
2023-02-11T02:45:34.842Z,96978.47
2023-02-11T02:48:04.829Z,96983.94
2023-02-11T02:50:37.772Z,96968.66
2023-02-11T02:53:20.183Z,96954.16
2023-02-11T02:56:01.764Z,96975.47
2023-02-11T02:59:09.454Z,96966.97
2023-02-11T03:01:47.134Z,96943.06
2023-02-11T03:04:25.332Z,96894.81
2023-02-11T03:06:59.335Z,96924.44
2023-02-11T03:09:33.109Z,96942.06
2023-02-11T03:12:04.046Z,96923.50
2023-02-11T03:14:33.813Z,96918.84
2023-02-11T03:17:06.176Z,96880.16
2023-02-11T03:19:39.842Z,96900.16
2023-02-11T03:22:10.358Z,96905.41
2023-02-11T03:24:40.919Z,96923.50
2023-02-11T03:27:17.811Z,96936.50
2023-02-11T03:29:54.725Z,96916.44
2023-02-11T03:32:28.677Z,96926.84
2023-02-11T03:35:02.396Z,96944.50
2023-02-11T03:37:33.845Z,96915.44
2023-02-11T03:40:04.803Z,96921.44
2023-02-11T03:42:37.382Z,96882.94
2023-02-11T03:45:09.916Z,96920.31
2023-02-11T03:47:43.171Z,96911.81
2023-02-11T03:50:15.953Z,96893.91
2023-02-11T03:52:45.449Z,96884.84
2023-02-11T03:55:20.844Z,96876.34
2023-02-11T03:57:49.691Z,96903.72
2023-02-11T04:00:18.179Z,96878.47
2023-02-11T04:02:46.690Z,96873.09
2023-02-11T04:05:17.654Z,96881.00
2023-02-11T04:07:46.030Z,96897.59
2023-02-11T04:10:14.574Z,96889.00
2023-02-11T04:12:43.473Z,96892.00
2023-02-11T04:15:11.880Z,96872.31
2023-02-11T04:17:41.258Z,96874.69
2023-02-11T04:20:10.534Z,96840.16
2023-02-11T04:22:40.637Z,96858.56
2023-02-11T04:25:10.716Z,96883.31
2023-02-11T04:27:39.450Z,96887.38
2023-02-11T04:30:09.157Z,96864.34
2023-02-11T04:32:37.590Z,96912.97
2023-02-11T04:35:06.786Z,96898.91
2023-02-11T04:37:35.836Z,96909.53
2023-02-11T04:40:06.524Z,96895.72
2023-02-11T04:42:34.871Z,96907.13
2023-02-11T04:45:03.228Z,96903.25
2023-02-11T04:47:31.704Z,96901.16
2023-02-11T04:50:00.038Z,96881.50
2023-02-11T04:52:28.428Z,96858.41
2023-02-11T04:54:56.817Z,96885.03
2023-02-11T04:57:26.562Z,96884.72
2023-02-11T04:59:54.960Z,96876.13
2023-02-11T05:02:23.391Z,96911.31
2023-02-11T05:04:51.826Z,96905.13
2023-02-11T05:07:20.160Z,96909.69
2023-02-11T05:09:48.503Z,96908.50
2023-02-11T05:12:17.167Z,96879.16
2023-02-11T05:14:46.912Z,96893.59
2023-02-11T05:17:15.362Z,96867.00
2023-02-11T05:19:44.097Z,96891.94
2023-02-11T05:22:12.534Z,96882.44
2023-02-11T05:24:41.039Z,96884.91
2023-02-11T05:27:09.366Z,96893.56
2023-02-11T05:29:38.114Z,96901.69
2023-02-11T05:32:09.329Z,96901.34
2023-02-11T05:34:38.056Z,96911.84
2023-02-11T05:37:06.667Z,96895.81
2023-02-11T05:39:35.095Z,96888.00
2023-02-11T05:42:03.514Z,96919.25
2023-02-11T05:44:31.902Z,96933.88
2023-02-11T05:47:00.328Z,96932.56
2023-02-11T05:49:30.068Z,96928.25
2023-02-11T05:51:58.641Z,96900.72
2023-02-11T05:54:26.940Z,96940.97
2023-02-11T05:56:55.320Z,96881.78
2023-02-11T05:59:23.587Z,96939.53
2023-02-11T06:01:51.987Z,96936.88
2023-02-11T06:04:20.318Z,96942.69
2023-02-11T06:06:50.586Z,96928.09
2023-02-11T06:09:18.972Z,96942.84
2023-02-11T06:11:47.628Z,96942.84
2023-02-11T06:14:16.020Z,96943.84
2023-02-11T06:16:44.407Z,96841.34
2023-02-11T06:19:12.784Z,96952.88
2023-02-11T06:21:44.238Z,96899.97
2023-02-11T06:24:14.439Z,96940.75
2023-02-11T06:26:42.974Z,96959.34
2023-02-11T06:29:11.285Z,96955.84
2023-02-11T06:31:40.503Z,96938.13
2023-02-11T06:34:09.484Z,96960.72
2023-02-11T06:36:39.819Z,96954.78
2023-02-11T06:39:08.832Z,96962.44
2023-02-11T06:41:38.666Z,96926.50
2023-02-11T06:44:07.498Z,96979.94
2023-02-11T06:46:37.290Z,96980.56
2023-02-11T06:49:06.827Z,96943.25
2023-02-11T06:51:35.550Z,96986.88
2023-02-11T06:54:03.815Z,96994.66
2023-02-11T06:56:32.223Z,96995.03
2023-02-11T06:59:02.606Z,96993.81
2023-02-11T07:01:31.157Z,96971.41
2023-02-11T07:03:59.614Z,96993.88
2023-02-11T07:06:29.114Z,96904.16
2023-02-11T07:08:57.626Z,96989.53
2023-02-11T07:11:28.350Z,97000.38
2023-02-11T07:14:00.831Z,96998.28
2023-02-11T07:16:30.997Z,97002.78
2023-02-11T07:18:59.650Z,97008.50
2023-02-11T07:21:28.283Z,97015.72
2023-02-11T07:23:56.715Z,97018.16
2023-02-11T07:26:26.436Z,97010.00
2023-02-11T07:28:55.060Z,96984.47
2023-02-11T07:31:25.526Z,96993.72
2023-02-11T07:33:56.385Z,97004.44
2023-02-11T07:36:25.035Z,96970.69
2023-02-11T07:38:53.545Z,96993.97
2023-02-11T07:41:24.582Z,96997.25
2023-02-11T07:43:52.928Z,97003.22
2023-02-11T07:46:23.251Z,96993.50
2023-02-11T07:48:52.090Z,97012.84
2023-02-11T07:51:24.477Z,97006.34
2023-02-11T07:53:53.605Z,97029.50
2023-02-11T07:56:23.999Z,97034.50
2023-02-11T07:58:52.693Z,97031.28
2023-02-11T08:01:25.445Z,97034.81
2023-02-11T08:03:54.427Z,97035.88
2023-02-11T08:06:25.641Z,97027.19
2023-02-11T08:08:54.528Z,97032.25
2023-02-11T08:11:24.848Z,97038.53
2023-02-11T08:13:54.257Z,97012.66
2023-02-11T08:16:25.024Z,97041.69
2023-02-11T08:18:54.448Z,97047.94
2023-02-11T08:21:24.189Z,97047.94
2023-02-11T08:23:52.873Z,97020.56
2023-02-11T08:26:23.753Z,97008.94
2023-02-11T08:28:53.953Z,97002.63
2023-02-11T08:31:25.026Z,96910.34
2023-02-11T08:33:54.966Z,97034.31
2023-02-11T08:36:26.470Z,97036.94
2023-02-11T08:39:08.596Z,97017.66
2023-02-11T08:41:46.105Z,97040.34
2023-02-11T08:44:15.446Z,97007.09
2023-02-11T08:46:43.982Z,97029.13
2023-02-11T08:49:13.180Z,97048.97
2023-02-11T08:51:43.574Z,97056.19
2023-02-11T08:54:12.119Z,97055.88
2023-02-11T08:56:41.252Z,97009.50
2023-02-11T08:59:11.059Z,97043.72
2023-02-11T09:01:39.620Z,97050.25
2023-02-11T09:04:08.234Z,97053.22
2023-02-11T09:06:36.706Z,97052.91
2023-02-11T09:09:07.392Z,97060.13
2023-02-11T09:11:37.497Z,97058.09
2023-02-11T09:14:05.999Z,97057.91
2023-02-11T09:16:36.149Z,97008.84
2023-02-11T09:19:06.736Z,97055.63
2023-02-11T09:21:35.850Z,97044.59
2023-02-11T09:24:07.804Z,97015.72
2023-02-11T09:26:38.403Z,97024.69
2023-02-11T09:29:08.171Z,97036.41
2023-02-11T09:31:37.462Z,97027.88
2023-02-11T09:34:08.087Z,97022.41
2023-02-11T09:36:38.822Z,97029.63
2023-02-11T09:39:15.121Z,97026.03
2023-02-11T09:42:04.920Z,97021.53
2023-02-11T09:44:36.424Z,97027.31
2023-02-11T09:47:08.103Z,97028.81
2023-02-11T09:49:42.559Z,97047.84
2023-02-11T09:52:23.367Z,97010.94
2023-02-11T09:54:57.065Z,97028.03
2023-02-11T09:57:29.301Z,97035.94
2023-02-11T09:59:58.573Z,97023.72
2023-02-11T10:10:26.527Z,97041.50
2023-02-11T10:13:07.935Z,97058.19
2023-02-11T10:15:46.527Z,97060.31
2023-02-11T10:18:52.948Z,97056.41
2023-02-11T10:21:30.493Z,97060.75
2023-02-11T10:24:04.317Z,97060.59
2023-02-11T10:26:37.981Z,97063.31
2023-02-11T10:29:13.837Z,97063.81
2023-02-11T10:31:46.984Z,97064.41
2023-02-11T10:34:17.082Z,97064.91
2023-02-11T10:36:46.674Z,97042.38
2023-02-11T10:39:18.079Z,97052.28
2023-02-11T10:41:52.259Z,97054.56
2023-02-11T10:44:32.476Z,97059.16
2023-02-11T10:47:04.418Z,97061.59
2023-02-11T10:49:38.718Z,97055.03
2023-02-11T10:52:31.855Z,97059.41
2023-02-11T10:55:03.238Z,97065.78
2023-02-11T10:57:37.995Z,97049.34
2023-02-11T11:00:22.473Z,97081.44
2023-02-11T11:02:56.995Z,97082.66
2023-02-11T11:05:31.869Z,97084.94
2023-02-11T11:08:01.972Z,97060.91
2023-02-11T11:10:37.148Z,97079.38
2023-02-11T11:13:07.634Z,97084.72
2023-02-11T11:15:37.535Z,97084.72
2023-02-11T11:18:22.553Z,97043.63
2023-02-11T11:21:03.596Z,97092.59
2023-02-11T11:23:33.508Z,97081.19
2023-02-11T11:26:07.179Z,97065.38
2023-02-11T11:28:40.955Z,97089.63
2023-02-11T11:31:18.660Z,97067.63
2023-02-11T11:33:49.613Z,97073.78
2023-02-11T11:36:22.713Z,97072.56
2023-02-11T11:38:56.439Z,97061.91
2023-02-11T11:41:27.394Z,97072.06
2023-02-11T11:44:01.090Z,97067.91
2023-02-11T11:46:32.075Z,97063.41
2023-02-11T11:49:09.398Z,97055.63
2023-02-11T11:51:41.406Z,97055.59
2023-02-11T11:54:15.052Z,97064.22
2023-02-11T11:56:52.342Z,97058.06
2023-02-11T11:59:23.630Z,97068.34
2023-02-11T12:02:15.493Z,97069.59
2023-02-11T12:05:01.836Z,97059.94
2023-02-11T12:07:50.735Z,97065.50
2023-02-11T12:10:33.006Z,97065.69
2023-02-11T12:13:17.290Z,97076.16
2023-02-11T12:15:56.923Z,97069.59
2023-02-11T12:18:45.503Z,97063.78
2023-02-11T12:21:29.735Z,97056.00
2023-02-11T12:24:17.505Z,97056.41
2023-02-11T12:26:51.422Z,97051.28
2023-02-11T12:29:33.641Z,97049.22
2023-02-11T12:32:27.585Z,97058.06
2023-02-11T12:35:23.073Z,97052.69
2023-02-11T12:38:09.104Z,97074.06
2023-02-11T12:40:46.557Z,97068.31
2023-02-11T12:43:24.063Z,97080.25
2023-02-11T12:46:39.981Z,97068.31
2023-02-11T12:49:38.905Z,97079.66
2023-02-11T12:52:24.659Z,97074.31
2023-02-11T12:55:00.235Z,97062.19
2023-02-11T12:57:32.539Z,97066.50
2023-02-11T13:00:07.769Z,97071.22
2023-02-11T13:02:45.720Z,97063.00
2023-02-11T13:05:24.238Z,97062.16
2023-02-11T13:07:57.317Z,97051.47
2023-02-11T13:10:31.354Z,97060.09
2023-02-11T13:13:20.180Z,97044.00
2023-02-11T13:15:52.023Z,97044.88
2023-02-11T13:18:41.528Z,97053.72
2023-02-11T13:21:30.782Z,97044.25
2023-02-11T13:24:11.183Z,97048.56
2023-02-11T13:26:49.052Z,97044.03
2023-02-11T13:29:28.952Z,96998.03
2023-02-11T13:31:58.588Z,97042.38
2023-02-11T13:34:48.334Z,97047.72
2023-02-11T13:37:24.299Z,97049.78
2023-02-11T13:40:03.199Z,97041.56
2023-02-11T13:42:33.903Z,97053.03
2023-02-11T13:45:02.735Z,97057.94
2023-02-11T13:47:34.600Z,97053.06
2023-02-11T13:50:07.092Z,97057.59
2023-02-11T13:52:40.329Z,97060.84
2023-02-11T13:55:21.696Z,97064.56
2023-02-11T13:58:19.031Z,97041.78
2023-02-11T14:00:50.484Z,97058.00
2023-02-11T14:03:57.471Z,97061.53
2023-02-11T14:06:46.254Z,97027.59
2023-02-11T14:09:39.252Z,97073.25
2023-02-11T14:12:37.829Z,97070.97
2023-02-11T14:15:26.713Z,97016.13
2023-02-11T14:17:55.211Z,97049.03
2023-02-11T14:20:46.661Z,97058.88
2023-02-11T14:23:27.668Z,97064.00
2023-02-11T14:26:24.008Z,97068.38
2023-02-11T14:28:57.785Z,97064.25
2023-02-11T14:31:28.164Z,97062.78
2023-02-11T14:34:16.888Z,97068.16
2023-02-11T14:37:18.776Z,97072.06
2023-02-11T14:39:58.474Z,97075.75
2023-02-11T14:42:31.179Z,97077.41
2023-02-11T14:45:04.592Z,97015.25
2023-02-11T14:47:42.012Z,97075.75
2023-02-11T14:50:19.288Z,97070.59
2023-02-11T14:52:48.531Z,97063.00
2023-02-11T14:55:27.157Z,97076.78
2023-02-11T14:58:09.508Z,97077.78
2023-02-11T15:00:37.940Z,97081.72
2023-02-11T15:03:06.284Z,97087.47
2023-02-11T15:05:35.151Z,97085.22
2023-02-11T15:08:07.926Z,97083.13
2023-02-11T15:10:43.740Z,97088.06
2023-02-11T15:13:21.669Z,97066.72
2023-02-11T15:15:54.773Z,97084.78
2023-02-11T15:18:26.876Z,97049.84
2023-02-11T15:20:55.404Z,97087.25
2023-02-11T15:23:27.579Z,97082.53
2023-02-11T15:25:56.674Z,97095.88
2023-02-11T15:28:30.150Z,97094.63
2023-02-11T15:31:00.551Z,97093.97
2023-02-11T15:33:30.537Z,97096.03
2023-02-11T15:35:59.885Z,97101.19
2023-02-11T15:38:29.954Z,97063.31
2023-02-11T15:41:01.024Z,97091.50
2023-02-11T15:43:44.623Z,97104.53
2023-02-11T15:46:15.864Z,97111.88
2023-02-11T15:48:48.763Z,97113.53
2023-02-11T15:51:22.176Z,97109.19
2023-02-11T15:53:56.952Z,97128.31
2023-02-11T15:56:29.898Z,97067.81
2023-02-11T15:59:02.032Z,97126.28
2023-02-11T16:01:34.047Z,97116.84
2023-02-11T16:04:04.100Z,97119.31
2023-02-11T16:06:38.482Z,97114.38
2023-02-11T16:09:23.087Z,97114.16
2023-02-11T16:12:03.728Z,97095.47
2023-02-11T16:14:37.562Z,97111.09
2023-02-11T16:17:09.640Z,97120.34
2023-02-11T16:19:44.279Z,97116.84
2023-02-11T16:22:17.317Z,97089.88
2023-02-11T16:24:49.756Z,97117.06
2023-02-11T16:27:23.477Z,97101.03
2023-02-11T16:29:53.427Z,97126.28
2023-02-11T16:32:23.618Z,97127.94
2023-02-11T16:34:53.017Z,97094.25
2023-02-11T16:37:21.405Z,97111.94
2023-02-11T16:39:49.686Z,97101.44
2023-02-11T16:42:18.164Z,97095.69
2023-02-11T16:44:46.448Z,97097.75
2023-02-11T16:47:22.106Z,97132.72
2023-02-11T16:49:50.900Z,97133.31
2023-02-11T16:52:21.372Z,97138.91
2023-02-11T16:54:49.924Z,97137.44
2023-02-11T16:57:21.115Z,97148.56
2023-02-11T16:59:50.171Z,97126.94
2023-02-11T17:02:24.138Z,97145.66
2023-02-11T17:04:53.684Z,97156.16
2023-02-11T17:07:22.569Z,97151.81
2023-02-11T17:09:52.097Z,97157.38
2023-02-11T17:12:20.560Z,97160.66
2023-02-11T17:14:49.021Z,97168.69
2023-02-11T17:17:17.709Z,97174.88
2023-02-11T17:19:49.894Z,97174.03
2023-02-11T17:22:19.118Z,97188.41
2023-02-11T17:24:47.371Z,97180.00
2023-02-11T17:27:17.466Z,97166.59
2023-02-11T17:29:46.765Z,97191.53
2023-02-11T17:32:15.901Z,97107.94
2023-02-11T17:34:46.583Z,97188.63
2023-02-11T17:37:17.160Z,97187.59
2023-02-11T17:39:45.976Z,97188.03
2023-02-11T17:42:15.125Z,97183.91
2023-02-11T17:44:46.206Z,97150.34
2023-02-11T17:47:16.113Z,97175.69
2023-02-11T17:49:45.189Z,97164.97
2023-02-11T17:52:16.863Z,97181.84
2023-02-11T17:54:47.787Z,97179.38
2023-02-11T17:57:16.522Z,97184.72
2023-02-11T17:59:45.021Z,97191.31
2023-02-11T18:02:14.182Z,97194.00
2023-02-11T18:04:44.654Z,97195.00
2023-02-11T18:07:14.395Z,97190.44
2023-02-11T18:09:46.095Z,97206.91
2023-02-11T18:12:15.150Z,97206.09
2023-02-11T18:14:46.419Z,97211.88
2023-02-11T18:17:15.688Z,97183.25
2023-02-11T18:19:44.579Z,97197.06
2023-02-11T18:22:14.504Z,97178.72
2023-02-11T18:24:46.224Z,97203.22
2023-02-11T18:27:15.243Z,97169.69
2023-02-11T18:29:43.524Z,97210.84
2023-02-11T18:32:12.331Z,97178.72
2023-02-11T18:34:41.840Z,97214.31
2023-02-11T18:37:11.702Z,97145.97
2023-02-11T18:39:39.951Z,97224.59
2023-02-11T18:42:09.948Z,97219.88
2023-02-11T18:44:38.630Z,97227.50
2023-02-11T18:47:06.979Z,97225.44
2023-02-11T18:49:36.305Z,97224.81
2023-02-11T18:52:04.875Z,97229.97
2023-02-11T18:54:33.126Z,97225.41
2023-02-11T18:57:01.672Z,97231.41
2023-02-11T18:59:31.943Z,97231.41
2023-02-11T19:02:00.329Z,97240.25
2023-02-11T19:04:28.795Z,97239.66
2023-02-11T19:06:57.310Z,97245.19
2023-02-11T19:09:25.921Z,97239.41
2023-02-11T19:11:55.734Z,97246.56
2023-02-11T19:14:25.742Z,97255.66
2023-02-11T19:16:57.478Z,97266.78
2023-02-11T19:19:28.156Z,97152.66
2023-02-11T19:21:57.538Z,97253.59
2023-02-11T19:24:27.260Z,97206.00
2023-02-11T19:26:58.247Z,97260.59
2023-02-11T19:29:29.088Z,97236.09
2023-02-11T19:31:59.465Z,97252.13
2023-02-11T19:34:28.540Z,97255.88
2023-02-11T19:36:59.721Z,97260.41
2023-02-11T19:39:28.688Z,97267.97
2023-02-11T19:41:57.658Z,97269.84
2023-02-11T19:44:26.105Z,97270.66
2023-02-11T19:46:54.923Z,97270.00
2023-02-11T19:49:26.391Z,97276.38
2023-02-11T19:51:57.508Z,97283.81
2023-02-11T19:54:27.510Z,97293.06
2023-02-11T19:56:56.100Z,97295.28
2023-02-11T19:59:24.608Z,97301.03
2023-02-11T20:01:54.490Z,97295.69
2023-02-11T20:04:27.030Z,97296.75
2023-02-11T20:06:56.266Z,97249.50
2023-02-11T20:09:26.722Z,97274.50
2023-02-11T20:11:59.374Z,97282.72
2023-02-11T20:14:28.211Z,97251.88
2023-02-11T20:16:57.128Z,97295.47
2023-02-11T20:19:30.458Z,97298.53
2023-02-11T20:21:59.216Z,97297.88
2023-02-11T20:24:28.308Z,97305.91
2023-02-11T20:26:57.277Z,97301.81
2023-02-11T20:29:27.777Z,97290.31
2023-02-11T20:31:56.592Z,97256.03
2023-02-11T20:34:26.500Z,97305.06
2023-02-11T20:36:56.147Z,97273.69
2023-02-11T20:39:25.845Z,97316.72
2023-02-11T20:41:55.210Z,97300.72
2023-02-11T20:44:24.244Z,97301.72
2023-02-11T20:46:54.643Z,97301.94
2023-02-11T20:49:28.654Z,97304.38
2023-02-11T20:51:58.616Z,97299.56
2023-02-11T20:54:28.203Z,97300.97
2023-02-11T20:56:58.936Z,97299.34
2023-02-11T20:59:27.735Z,97308.34
2023-02-11T21:01:58.402Z,97313.31
2023-02-11T21:04:30.246Z,97305.28
2023-02-11T21:07:01.275Z,97309.63
2023-02-11T21:09:33.997Z,97265.69
2023-02-11T21:12:04.478Z,97309.22
2023-02-11T21:14:34.696Z,97310.63
2023-02-11T21:17:03.998Z,97297.06
2023-02-11T21:19:33.917Z,97310.84
2023-02-11T21:22:03.402Z,97307.59
2023-02-11T21:24:32.557Z,97297.81
2023-02-11T21:27:01.132Z,97305.69
2023-02-11T21:29:30.268Z,97313.59
2023-02-11T21:31:59.303Z,97297.06
2023-02-11T21:34:27.734Z,97325.38
2023-02-11T21:36:59.435Z,97322.06
2023-02-11T21:39:29.147Z,97317.50
2023-02-11T21:41:58.640Z,97324.28
2023-02-11T21:44:27.956Z,97326.97
2023-02-11T21:46:56.799Z,97325.78
2023-02-11T21:49:26.480Z,97333.34
2023-02-11T21:51:57.168Z,97325.78
2023-02-11T21:54:29.288Z,97336.06
2023-02-11T21:56:57.654Z,97336.47
2023-02-11T21:59:26.921Z,97324.25
2023-02-11T22:01:55.228Z,97352.91
2023-02-11T22:04:24.656Z,97345.56
2023-02-11T22:06:54.351Z,97346.38
2023-02-11T22:09:25.777Z,97352.31
2023-02-11T22:11:57.131Z,97348.00
2023-02-11T22:14:26.689Z,97371.03
2023-02-11T22:16:56.749Z,97371.03
2023-02-11T22:19:27.542Z,97365.09
2023-02-11T22:21:57.356Z,97378.44
2023-02-11T22:24:30.162Z,97369.81
2023-02-11T22:27:00.104Z,97376.38
2023-02-11T22:29:29.103Z,97332.88
2023-02-11T22:31:57.626Z,97346.31
2023-02-11T22:34:26.000Z,97368.75
2023-02-11T22:36:54.376Z,97370.03
2023-02-11T22:39:22.868Z,97373.09
2023-02-11T22:41:54.644Z,97362.81
2023-02-11T22:44:22.936Z,97376.16
2023-02-11T22:46:51.581Z,97319.09
2023-02-11T22:49:21.451Z,97359.94
2023-02-11T22:51:50.361Z,97339.28
2023-02-11T22:54:20.170Z,97362.41
2023-02-11T22:56:53.413Z,97367.94
2023-02-11T22:59:22.633Z,97354.13
2023-02-11T23:01:51.217Z,97357.63
2023-02-11T23:04:20.987Z,97375.38
2023-02-11T23:06:50.133Z,97344.84
2023-02-11T23:09:18.547Z,97414.25
2023-02-11T23:11:48.661Z,97399.88
2023-02-11T23:14:18.325Z,97404.66
2023-02-11T23:16:46.802Z,97394.97
2023-02-11T23:19:15.081Z,97399.69
2023-02-11T23:21:43.612Z,97401.53
2023-02-11T23:24:16.585Z,97399.69
2023-02-11T23:26:45.738Z,97401.72
2023-02-11T23:29:14.587Z,97409.78
2023-02-11T23:31:46.613Z,97409.78
2023-02-11T23:34:17.427Z,97409.16
2023-02-11T23:36:45.865Z,97406.00
2023-02-11T23:39:16.128Z,97410.97
2023-02-11T23:41:44.644Z,97412.63
2023-02-11T23:44:13.176Z,97415.31
2023-02-11T23:46:41.470Z,97420.00
2023-02-11T23:49:11.233Z,97418.38
2023-02-11T23:51:39.533Z,97419.19
2023-02-11T23:54:07.822Z,97399.81
2023-02-11T23:56:37.106Z,97423.31
2023-02-11T23:59:05.462Z,97419.38
